sensor_id;sensor_type;location;lat;lon;timestamp;P1;durP1;ratioP1;P2;durP2;ratioP2
33760;SDS011;20084;47.912;19.044;2023-10-13T00:00:28;7.35;;;3.63;;
33760;SDS011;20084;47.912;19.044;2023-10-13T00:02:57;6.47;;;3.40;;
33760;SDS011;20084;47.912;19.044;2023-10-13T00:05:26;9.23;;;3.55;;
33760;SDS011;20084;47.912;19.044;2023-10-13T00:10:26;9.25;;;3.80;;
33760;SDS011;20084;47.912;19.044;2023-10-13T00:12:52;6.90;;;3.50;;
33760;SDS011;20084;47.912;19.044;2023-10-13T00:15:18;7.70;;;3.50;;
33760;SDS011;20084;47.912;19.044;2023-10-13T00:17:52;9.45;;;3.58;;
33760;SDS011;20084;47.912;19.044;2023-10-13T00:20:20;6.55;;;3.40;;
33760;SDS011;20084;47.912;19.044;2023-10-13T00:23:03;8.82;;;4.28;;
33760;SDS011;20084;47.912;19.044;2023-10-13T00:25:28;6.35;;;3.63;;
33760;SDS011;20084;47.912;19.044;2023-10-13T00:28:05;11.57;;;3.80;;
33760;SDS011;20084;47.912;19.044;2023-10-13T00:30:33;8.48;;;3.72;;
33760;SDS011;20084;47.912;19.044;2023-10-13T00:32:59;8.68;;;3.55;;
33760;SDS011;20084;47.912;19.044;2023-10-13T00:35:28;9.52;;;3.65;;
33760;SDS011;20084;47.912;19.044;2023-10-13T00:38:01;8.43;;;3.65;;
33760;SDS011;20084;47.912;19.044;2023-10-13T00:40:39;8.00;;;3.83;;
33760;SDS011;20084;47.912;19.044;2023-10-13T00:43:07;10.07;;;3.80;;
33760;SDS011;20084;47.912;19.044;2023-10-13T00:48:22;7.82;;;3.50;;
33760;SDS011;20084;47.912;19.044;2023-10-13T00:50:58;9.25;;;4.20;;
33760;SDS011;20084;47.912;19.044;2023-10-13T00:53:41;7.70;;;3.42;;
33760;SDS011;20084;47.912;19.044;2023-10-13T00:56:09;5.03;;;3.67;;
33760;SDS011;20084;47.912;19.044;2023-10-13T00:58:45;6.05;;;3.33;;
33760;SDS011;20084;47.912;19.044;2023-10-13T01:01:18;7.65;;;3.85;;
33760;SDS011;20084;47.912;19.044;2023-10-13T01:03:53;7.07;;;3.97;;
33760;SDS011;20084;47.912;19.044;2023-10-13T01:06:24;7.60;;;3.67;;
33760;SDS011;20084;47.912;19.044;2023-10-13T01:08:59;8.68;;;4.05;;
33760;SDS011;20084;47.912;19.044;2023-10-13T01:11:44;4.95;;;4.10;;
33760;SDS011;20084;47.912;19.044;2023-10-13T01:14:17;7.78;;;4.00;;
33760;SDS011;20084;47.912;19.044;2023-10-13T01:16:45;7.82;;;4.15;;
33760;SDS011;20084;47.912;19.044;2023-10-13T01:19:13;9.25;;;4.22;;
33760;SDS011;20084;47.912;19.044;2023-10-13T01:21:42;6.55;;;3.90;;
33760;SDS011;20084;47.912;19.044;2023-10-13T01:24:09;10.20;;;4.32;;
33760;SDS011;20084;47.912;19.044;2023-10-13T01:26:38;6.13;;;3.35;;
33760;SDS011;20084;47.912;19.044;2023-10-13T01:29:05;7.95;;;4.43;;
33760;SDS011;20084;47.912;19.044;2023-10-13T01:31:39;7.40;;;4.05;;
33760;SDS011;20084;47.912;19.044;2023-10-13T01:34:15;13.27;;;4.10;;
33760;SDS011;20084;47.912;19.044;2023-10-13T01:36:50;8.27;;;4.32;;
33760;SDS011;20084;47.912;19.044;2023-10-13T01:39:18;7.78;;;3.85;;
33760;SDS011;20084;47.912;19.044;2023-10-13T01:41:45;6.50;;;3.88;;
33760;SDS011;20084;47.912;19.044;2023-10-13T01:44:11;5.55;;;3.72;;
33760;SDS011;20084;47.912;19.044;2023-10-13T01:46:37;7.65;;;4.30;;
33760;SDS011;20084;47.912;19.044;2023-10-13T01:49:03;6.53;;;4.13;;
33760;SDS011;20084;47.912;19.044;2023-10-13T01:51:29;7.65;;;4.28;;
33760;SDS011;20084;47.912;19.044;2023-10-13T01:53:54;13.43;;;4.68;;
33760;SDS011;20084;47.912;19.044;2023-10-13T01:56:23;7.60;;;4.35;;
33760;SDS011;20084;47.912;19.044;2023-10-13T01:58:50;6.47;;;4.28;;
33760;SDS011;20084;47.912;19.044;2023-10-13T02:01:17;5.47;;;3.88;;
33760;SDS011;20084;47.912;19.044;2023-10-13T02:03:55;7.15;;;4.85;;
33760;SDS011;20084;47.912;19.044;2023-10-13T02:06:30;7.38;;;4.65;;
33760;SDS011;20084;47.912;19.044;2023-10-13T02:09:07;6.77;;;3.73;;
33760;SDS011;20084;47.912;19.044;2023-10-13T02:11:39;8.02;;;4.20;;
33760;SDS011;20084;47.912;19.044;2023-10-13T02:14:07;7.10;;;4.07;;
33760;SDS011;20084;47.912;19.044;2023-10-13T02:16:37;9.05;;;4.43;;
33760;SDS011;20084;47.912;19.044;2023-10-13T02:19:05;8.43;;;4.07;;
33760;SDS011;20084;47.912;19.044;2023-10-13T02:21:33;8.43;;;4.30;;
33760;SDS011;20084;47.912;19.044;2023-10-13T02:24:05;7.13;;;4.00;;
33760;SDS011;20084;47.912;19.044;2023-10-13T02:26:37;8.50;;;4.80;;
33760;SDS011;20084;47.912;19.044;2023-10-13T02:29:04;8.63;;;4.30;;
33760;SDS011;20084;47.912;19.044;2023-10-13T02:31:36;8.32;;;3.90;;
33760;SDS011;20084;47.912;19.044;2023-10-13T02:34:02;6.80;;;4.05;;
33760;SDS011;20084;47.912;19.044;2023-10-13T02:36:37;8.95;;;4.57;;
33760;SDS011;20084;47.912;19.044;2023-10-13T02:39:14;5.47;;;3.88;;
33760;SDS011;20084;47.912;19.044;2023-10-13T02:41:50;7.60;;;4.35;;
33760;SDS011;20084;47.912;19.044;2023-10-13T02:44:16;6.72;;;4.07;;
33760;SDS011;20084;47.912;19.044;2023-10-13T02:47:02;9.40;;;4.38;;
33760;SDS011;20084;47.912;19.044;2023-10-13T02:49:39;9.23;;;3.95;;
33760;SDS011;20084;47.912;19.044;2023-10-13T02:52:08;6.80;;;4.13;;
33760;SDS011;20084;47.912;19.044;2023-10-13T02:54:35;6.65;;;3.88;;
33760;SDS011;20084;47.912;19.044;2023-10-13T02:57:16;8.13;;;4.18;;
33760;SDS011;20084;47.912;19.044;2023-10-13T02:59:42;5.82;;;3.30;;
33760;SDS011;20084;47.912;19.044;2023-10-13T03:02:13;8.98;;;4.18;;
33760;SDS011;20084;47.912;19.044;2023-10-13T03:04:52;8.23;;;4.35;;
33760;SDS011;20084;47.912;19.044;2023-10-13T03:07:24;6.25;;;3.90;;
33760;SDS011;20084;47.912;19.044;2023-10-13T03:09:53;5.75;;;3.90;;
33760;SDS011;20084;47.912;19.044;2023-10-13T03:12:23;8.73;;;4.03;;
33760;SDS011;20084;47.912;19.044;2023-10-13T03:14:58;7.10;;;4.03;;
33760;SDS011;20084;47.912;19.044;2023-10-13T03:17:36;9.68;;;4.45;;
33760;SDS011;20084;47.912;19.044;2023-10-13T03:20:06;7.75;;;4.20;;
33760;SDS011;20084;47.912;19.044;2023-10-13T03:22:36;7.53;;;4.43;;
33760;SDS011;20084;47.912;19.044;2023-10-13T03:25:02;8.57;;;4.53;;
33760;SDS011;20084;47.912;19.044;2023-10-13T03:27:32;6.15;;;4.70;;
33760;SDS011;20084;47.912;19.044;2023-10-13T03:30:24;7.83;;;4.53;;
33760;SDS011;20084;47.912;19.044;2023-10-13T03:33:16;7.05;;;3.72;;
33760;SDS011;20084;47.912;19.044;2023-10-13T03:35:50;5.63;;;3.85;;
33760;SDS011;20084;47.912;19.044;2023-10-13T03:38:19;7.05;;;4.28;;
33760;SDS011;20084;47.912;19.044;2023-10-13T03:40:50;8.77;;;4.30;;
33760;SDS011;20084;47.912;19.044;2023-10-13T03:43:32;10.07;;;4.57;;
33760;SDS011;20084;47.912;19.044;2023-10-13T03:46:09;7.63;;;4.65;;
33760;SDS011;20084;47.912;19.044;2023-10-13T03:48:35;8.30;;;4.47;;
33760;SDS011;20084;47.912;19.044;2023-10-13T03:51:17;9.38;;;4.32;;
33760;SDS011;20084;47.912;19.044;2023-10-13T03:53:43;6.90;;;4.32;;
33760;SDS011;20084;47.912;19.044;2023-10-13T03:56:18;7.00;;;4.82;;
33760;SDS011;20084;47.912;19.044;2023-10-13T03:58:51;9.75;;;4.75;;
33760;SDS011;20084;47.912;19.044;2023-10-13T04:01:37;8.35;;;4.72;;
33760;SDS011;20084;47.912;19.044;2023-10-13T04:04:08;8.83;;;4.80;;
33760;SDS011;20084;47.912;19.044;2023-10-13T04:06:39;6.53;;;4.43;;
33760;SDS011;20084;47.912;19.044;2023-10-13T04:09:17;10.70;;;4.68;;
33760;SDS011;20084;47.912;19.044;2023-10-13T04:12:00;5.93;;;4.03;;
33760;SDS011;20084;47.912;19.044;2023-10-13T04:14:26;7.72;;;4.57;;
33760;SDS011;20084;47.912;19.044;2023-10-13T04:17:21;8.80;;;4.50;;
33760;SDS011;20084;47.912;19.044;2023-10-13T04:22:40;7.70;;;4.65;;
33760;SDS011;20084;47.912;19.044;2023-10-13T04:25:16;9.02;;;4.70;;
33760;SDS011;20084;47.912;19.044;2023-10-13T04:28:16;8.45;;;4.75;;
33760;SDS011;20084;47.912;19.044;2023-10-13T04:30:51;8.48;;;4.75;;
33760;SDS011;20084;47.912;19.044;2023-10-13T04:33:23;9.30;;;5.55;;
33760;SDS011;20084;47.912;19.044;2023-10-13T04:36:06;6.00;;;4.75;;
33760;SDS011;20084;47.912;19.044;2023-10-13T04:38:46;12.68;;;5.13;;
33760;SDS011;20084;47.912;19.044;2023-10-13T04:41:30;9.15;;;4.88;;
33760;SDS011;20084;47.912;19.044;2023-10-13T04:44:13;8.00;;;4.28;;
33760;SDS011;20084;47.912;19.044;2023-10-13T04:46:56;7.18;;;3.92;;
33760;SDS011;20084;47.912;19.044;2023-10-13T04:49:26;8.55;;;3.95;;
33760;SDS011;20084;47.912;19.044;2023-10-13T04:52:07;9.75;;;4.43;;
33760;SDS011;20084;47.912;19.044;2023-10-13T04:54:35;8.73;;;4.00;;
33760;SDS011;20084;47.912;19.044;2023-10-13T04:57:12;8.98;;;3.88;;
33760;SDS011;20084;47.912;19.044;2023-10-13T04:59:56;5.80;;;4.13;;
33760;SDS011;20084;47.912;19.044;2023-10-13T05:02:34;9.50;;;4.03;;
33760;SDS011;20084;47.912;19.044;2023-10-13T05:05:01;5.63;;;3.65;;
33760;SDS011;20084;47.912;19.044;2023-10-13T05:07:39;7.22;;;4.45;;
33760;SDS011;20084;47.912;19.044;2023-10-13T05:10:24;8.13;;;4.10;;
33760;SDS011;20084;47.912;19.044;2023-10-13T05:13:08;6.90;;;4.40;;
33760;SDS011;20084;47.912;19.044;2023-10-13T05:15:52;5.88;;;3.75;;
33760;SDS011;20084;47.912;19.044;2023-10-13T05:18:36;5.93;;;3.78;;
33760;SDS011;20084;47.912;19.044;2023-10-13T05:21:20;5.38;;;3.85;;
33760;SDS011;20084;47.912;19.044;2023-10-13T05:24:05;6.05;;;3.50;;
33760;SDS011;20084;47.912;19.044;2023-10-13T05:26:49;8.18;;;4.03;;
33760;SDS011;20084;47.912;19.044;2023-10-13T05:29:38;7.28;;;4.05;;
33760;SDS011;20084;47.912;19.044;2023-10-13T05:32:22;6.95;;;4.05;;
33760;SDS011;20084;47.912;19.044;2023-10-13T05:35:07;19.30;;;8.18;;
33760;SDS011;20084;47.912;19.044;2023-10-13T05:37:55;12.18;;;7.13;;
33760;SDS011;20084;47.912;19.044;2023-10-13T05:40:40;7.65;;;5.38;;
33760;SDS011;20084;47.912;19.044;2023-10-13T05:43:34;10.73;;;8.20;;
33760;SDS011;20084;47.912;19.044;2023-10-13T05:46:18;7.43;;;5.13;;
33760;SDS011;20084;47.912;19.044;2023-10-13T05:48:50;10.97;;;6.57;;
33760;SDS011;20084;47.912;19.044;2023-10-13T05:54:00;7.32;;;4.07;;
33760;SDS011;20084;47.912;19.044;2023-10-13T05:56:53;7.30;;;4.68;;
33760;SDS011;20084;47.912;19.044;2023-10-13T05:59:37;6.80;;;5.03;;
33760;SDS011;20084;47.912;19.044;2023-10-13T06:02:22;8.13;;;4.45;;
33760;SDS011;20084;47.912;19.044;2023-10-13T06:05:10;10.55;;;4.57;;
33760;SDS011;20084;47.912;19.044;2023-10-13T06:07:56;7.95;;;4.95;;
33760;SDS011;20084;47.912;19.044;2023-10-13T06:10:41;6.93;;;4.05;;
33760;SDS011;20084;47.912;19.044;2023-10-13T06:13:26;7.63;;;4.25;;
33760;SDS011;20084;47.912;19.044;2023-10-13T06:16:12;11.52;;;5.30;;
33760;SDS011;20084;47.912;19.044;2023-10-13T06:18:58;7.30;;;4.53;;
33760;SDS011;20084;47.912;19.044;2023-10-13T06:21:43;11.13;;;5.32;;
33760;SDS011;20084;47.912;19.044;2023-10-13T06:24:28;6.93;;;4.90;;
33760;SDS011;20084;47.912;19.044;2023-10-13T06:27:13;8.00;;;5.20;;
33760;SDS011;20084;47.912;19.044;2023-10-13T06:29:57;8.65;;;5.50;;
33760;SDS011;20084;47.912;19.044;2023-10-13T06:32:23;9.05;;;5.57;;
33760;SDS011;20084;47.912;19.044;2023-10-13T06:34:55;10.90;;;5.38;;
33760;SDS011;20084;47.912;19.044;2023-10-13T06:37:29;10.35;;;5.13;;
33760;SDS011;20084;47.912;19.044;2023-10-13T06:39:56;7.63;;;5.00;;
33760;SDS011;20084;47.912;19.044;2023-10-13T06:42:35;8.23;;;5.30;;
33760;SDS011;20084;47.912;19.044;2023-10-13T06:45:07;8.90;;;4.82;;
33760;SDS011;20084;47.912;19.044;2023-10-13T06:47:37;5.65;;;4.10;;
33760;SDS011;20084;47.912;19.044;2023-10-13T06:50:11;7.93;;;4.55;;
33760;SDS011;20084;47.912;19.044;2023-10-13T06:52:41;5.00;;;4.22;;
33760;SDS011;20084;47.912;19.044;2023-10-13T06:55:08;7.13;;;4.55;;
33760;SDS011;20084;47.912;19.044;2023-10-13T06:57:45;7.68;;;4.45;;
33760;SDS011;20084;47.912;19.044;2023-10-13T07:00:12;7.47;;;4.75;;
33760;SDS011;20084;47.912;19.044;2023-10-13T07:02:56;5.78;;;4.95;;
33760;SDS011;20084;47.912;19.044;2023-10-13T07:05:39;9.10;;;4.22;;
33760;SDS011;20084;47.912;19.044;2023-10-13T07:08:08;8.93;;;5.45;;
33760;SDS011;20084;47.912;19.044;2023-10-13T07:10:35;8.57;;;4.72;;
33760;SDS011;20084;47.912;19.044;2023-10-13T07:13:13;7.57;;;4.82;;
33760;SDS011;20084;47.912;19.044;2023-10-13T07:15:39;7.65;;;4.50;;
33760;SDS011;20084;47.912;19.044;2023-10-13T07:18:14;14.10;;;4.88;;
33760;SDS011;20084;47.912;19.044;2023-10-13T07:20:48;9.60;;;5.18;;
33760;SDS011;20084;47.912;19.044;2023-10-13T07:23:14;7.25;;;4.55;;
33760;SDS011;20084;47.912;19.044;2023-10-13T07:25:43;6.53;;;5.00;;
33760;SDS011;20084;47.912;19.044;2023-10-13T07:28:21;6.82;;;5.68;;
33760;SDS011;20084;47.912;19.044;2023-10-13T07:30:47;6.90;;;4.85;;
33760;SDS011;20084;47.912;19.044;2023-10-13T07:33:18;7.75;;;5.15;;
33760;SDS011;20084;47.912;19.044;2023-10-13T07:35:47;8.30;;;5.03;;
33760;SDS011;20084;47.912;19.044;2023-10-13T07:38:16;7.35;;;4.95;;
33760;SDS011;20084;47.912;19.044;2023-10-13T07:40:46;8.07;;;4.80;;
33760;SDS011;20084;47.912;19.044;2023-10-13T07:43:17;6.45;;;5.13;;
33760;SDS011;20084;47.912;19.044;2023-10-13T07:45:46;7.65;;;4.97;;
33760;SDS011;20084;47.912;19.044;2023-10-13T07:48:16;8.55;;;4.55;;
33760;SDS011;20084;47.912;19.044;2023-10-13T07:50:46;8.13;;;5.15;;
33760;SDS011;20084;47.912;19.044;2023-10-13T07:53:13;8.10;;;4.93;;
33760;SDS011;20084;47.912;19.044;2023-10-13T07:55:49;9.50;;;5.03;;
33760;SDS011;20084;47.912;19.044;2023-10-13T07:58:22;7.07;;;4.60;;
33760;SDS011;20084;47.912;19.044;2023-10-13T08:00:51;5.80;;;4.55;;
33760;SDS011;20084;47.912;19.044;2023-10-13T08:03:23;7.40;;;4.43;;
33760;SDS011;20084;47.912;19.044;2023-10-13T08:06:08;7.50;;;4.35;;
33760;SDS011;20084;47.912;19.044;2023-10-13T08:08:36;8.43;;;4.68;;
33760;SDS011;20084;47.912;19.044;2023-10-13T08:11:09;8.95;;;4.95;;
33760;SDS011;20084;47.912;19.044;2023-10-13T08:13:51;8.82;;;4.80;;
33760;SDS011;20084;47.912;19.044;2023-10-13T08:16:52;8.20;;;4.88;;
33760;SDS011;20084;47.912;19.044;2023-10-13T08:19:20;8.07;;;5.43;;
33760;SDS011;20084;47.912;19.044;2023-10-13T08:21:57;8.27;;;5.45;;
33760;SDS011;20084;47.912;19.044;2023-10-13T08:24:27;8.65;;;5.20;;
33760;SDS011;20084;47.912;19.044;2023-10-13T08:27:02;8.50;;;5.40;;
33760;SDS011;20084;47.912;19.044;2023-10-13T08:29:41;10.23;;;5.18;;
33760;SDS011;20084;47.912;19.044;2023-10-13T08:32:28;10.50;;;5.32;;
33760;SDS011;20084;47.912;19.044;2023-10-13T08:37:21;9.43;;;4.95;;
33760;SDS011;20084;47.912;19.044;2023-10-13T08:39:50;8.55;;;5.07;;
33760;SDS011;20084;47.912;19.044;2023-10-13T08:42:29;8.90;;;4.93;;
33760;SDS011;20084;47.912;19.044;2023-10-13T08:45:05;6.47;;;4.72;;
33760;SDS011;20084;47.912;19.044;2023-10-13T08:47:48;12.63;;;5.75;;
33760;SDS011;20084;47.912;19.044;2023-10-13T08:50:33;11.45;;;5.13;;
33760;SDS011;20084;47.912;19.044;2023-10-13T08:53:15;11.32;;;5.78;;
33760;SDS011;20084;47.912;19.044;2023-10-13T08:56:00;12.65;;;6.25;;
33760;SDS011;20084;47.912;19.044;2023-10-13T09:04:10;7.93;;;4.63;;
33760;SDS011;20084;47.912;19.044;2023-10-13T09:06:50;12.20;;;5.35;;
33760;SDS011;20084;47.912;19.044;2023-10-13T09:12:13;14.35;;;5.80;;
33760;SDS011;20084;47.912;19.044;2023-10-13T09:14:43;10.45;;;5.55;;
33760;SDS011;20084;47.912;19.044;2023-10-13T09:17:10;9.43;;;5.55;;
33760;SDS011;20084;47.912;19.044;2023-10-13T09:19:56;12.05;;;5.03;;
33760;SDS011;20084;47.912;19.044;2023-10-13T09:22:27;8.25;;;5.20;;
33760;SDS011;20084;47.912;19.044;2023-10-13T09:25:03;9.50;;;4.53;;
33760;SDS011;20084;47.912;19.044;2023-10-13T09:27:39;13.30;;;5.70;;
33760;SDS011;20084;47.912;19.044;2023-10-13T09:30:05;9.40;;;5.28;;
33760;SDS011;20084;47.912;19.044;2023-10-13T09:32:35;12.55;;;5.05;;
33760;SDS011;20084;47.912;19.044;2023-10-13T09:35:17;10.52;;;4.57;;
33760;SDS011;20084;47.912;19.044;2023-10-13T09:37:48;8.63;;;3.85;;
33760;SDS011;20084;47.912;19.044;2023-10-13T09:40:16;6.07;;;3.58;;
33760;SDS011;20084;47.912;19.044;2023-10-13T09:45:30;10.65;;;3.90;;
33760;SDS011;20084;47.912;19.044;2023-10-13T09:48:11;8.10;;;3.88;;
33760;SDS011;20084;47.912;19.044;2023-10-13T09:50:47;7.57;;;4.22;;
33760;SDS011;20084;47.912;19.044;2023-10-13T09:53:14;5.85;;;3.92;;
33760;SDS011;20084;47.912;19.044;2023-10-13T09:55:50;8.15;;;3.40;;
33760;SDS011;20084;47.912;19.044;2023-10-13T09:58:25;4.70;;;3.28;;
33760;SDS011;20084;47.912;19.044;2023-10-13T10:01:01;9.00;;;4.05;;
33760;SDS011;20084;47.912;19.044;2023-10-13T10:03:46;11.10;;;3.83;;
33760;SDS011;20084;47.912;19.044;2023-10-13T10:06:36;7.38;;;3.80;;
33760;SDS011;20084;47.912;19.044;2023-10-13T10:09:10;9.20;;;3.75;;
33760;SDS011;20084;47.912;19.044;2023-10-13T10:14:19;8.15;;;3.42;;
33760;SDS011;20084;47.912;19.044;2023-10-13T10:17:13;7.38;;;3.75;;
33760;SDS011;20084;47.912;19.044;2023-10-13T10:19:49;8.52;;;3.40;;
33760;SDS011;20084;47.912;19.044;2023-10-13T10:22:29;6.80;;;3.15;;
33760;SDS011;20084;47.912;19.044;2023-10-13T10:25:05;9.07;;;3.65;;
33760;SDS011;20084;47.912;19.044;2023-10-13T10:30:26;5.55;;;3.20;;
33760;SDS011;20084;47.912;19.044;2023-10-13T10:32:56;6.35;;;3.47;;
33760;SDS011;20084;47.912;19.044;2023-10-13T10:35:26;7.93;;;3.50;;
33760;SDS011;20084;47.912;19.044;2023-10-13T10:37:57;6.97;;;3.60;;
33760;SDS011;20084;47.912;19.044;2023-10-13T10:40:53;6.32;;;3.28;;
33760;SDS011;20084;47.912;19.044;2023-10-13T10:43:39;5.05;;;3.08;;
33760;SDS011;20084;47.912;19.044;2023-10-13T10:46:17;7.15;;;3.22;;
33760;SDS011;20084;47.912;19.044;2023-10-13T10:48:50;8.27;;;3.28;;
33760;SDS011;20084;47.912;19.044;2023-10-13T10:51:21;5.13;;;3.45;;
33760;SDS011;20084;47.912;19.044;2023-10-13T10:53:53;5.88;;;3.17;;
33760;SDS011;20084;47.912;19.044;2023-10-13T10:56:25;9.80;;;3.70;;
33760;SDS011;20084;47.912;19.044;2023-10-13T10:59:02;7.70;;;3.30;;
33760;SDS011;20084;47.912;19.044;2023-10-13T11:01:29;8.95;;;3.70;;
33760;SDS011;20084;47.912;19.044;2023-10-13T11:04:03;5.53;;;3.00;;
33760;SDS011;20084;47.912;19.044;2023-10-13T11:06:44;5.15;;;3.30;;
33760;SDS011;20084;47.912;19.044;2023-10-13T11:14:42;6.22;;;2.95;;
33760;SDS011;20084;47.912;19.044;2023-10-13T11:17:18;5.05;;;2.80;;
33760;SDS011;20084;47.912;19.044;2023-10-13T11:19:51;7.65;;;3.20;;
33760;SDS011;20084;47.912;19.044;2023-10-13T11:22:18;7.78;;;3.20;;
33760;SDS011;20084;47.912;19.044;2023-10-13T11:24:57;6.55;;;3.00;;
33760;SDS011;20084;47.912;19.044;2023-10-13T11:27:37;4.97;;;2.70;;
33760;SDS011;20084;47.912;19.044;2023-10-13T11:30:18;18.83;;;3.78;;
33760;SDS011;20084;47.912;19.044;2023-10-13T11:33:30;6.32;;;3.65;;
33760;SDS011;20084;47.912;19.044;2023-10-13T11:35:33;6.32;;;3.22;;
33760;SDS011;20084;47.912;19.044;2023-10-13T11:38:17;8.98;;;3.70;;
33760;SDS011;20084;47.912;19.044;2023-10-13T11:40:59;10.25;;;3.58;;
33760;SDS011;20084;47.912;19.044;2023-10-13T11:43:35;6.65;;;3.75;;
33760;SDS011;20084;47.912;19.044;2023-10-13T11:46:09;7.50;;;3.55;;
33760;SDS011;20084;47.912;19.044;2023-10-13T11:48:38;6.28;;;3.60;;
33760;SDS011;20084;47.912;19.044;2023-10-13T11:51:07;9.27;;;3.63;;
33760;SDS011;20084;47.912;19.044;2023-10-13T11:53:48;4.97;;;3.20;;
33760;SDS011;20084;47.912;19.044;2023-10-13T11:56:17;8.80;;;3.60;;
33760;SDS011;20084;47.912;19.044;2023-10-13T11:58:47;7.40;;;3.05;;
33760;SDS011;20084;47.912;19.044;2023-10-13T12:01:13;8.05;;;3.55;;
33760;SDS011;20084;47.912;19.044;2023-10-13T12:03:42;6.68;;;3.30;;
33760;SDS011;20084;47.912;19.044;2023-10-13T12:06:27;6.07;;;3.35;;
33760;SDS011;20084;47.912;19.044;2023-10-13T12:09:00;5.95;;;3.20;;
33760;SDS011;20084;47.912;19.044;2023-10-13T12:11:41;8.20;;;3.20;;
33760;SDS011;20084;47.912;19.044;2023-10-13T12:14:07;4.18;;;2.85;;
33760;SDS011;20084;47.912;19.044;2023-10-13T12:16:56;12.52;;;3.38;;
33760;SDS011;20084;47.912;19.044;2023-10-13T12:21:54;8.15;;;3.20;;
33760;SDS011;20084;47.912;19.044;2023-10-13T12:24:21;7.00;;;3.15;;
33760;SDS011;20084;47.912;19.044;2023-10-13T12:26:56;4.07;;;2.90;;
33760;SDS011;20084;47.912;19.044;2023-10-13T12:29:25;8.52;;;3.05;;
33760;SDS011;20084;47.912;19.044;2023-10-13T12:32:00;7.53;;;3.00;;
33760;SDS011;20084;47.912;19.044;2023-10-13T12:34:37;7.53;;;3.00;;
33760;SDS011;20084;47.912;19.044;2023-10-13T12:37:41;70.03;;;5.85;;
33760;SDS011;20084;47.912;19.044;2023-10-13T12:40:08;3.75;;;1.80;;
33760;SDS011;20084;47.912;19.044;2023-10-13T12:42:54;4.78;;;1.48;;
33760;SDS011;20084;47.912;19.044;2023-10-13T12:45:42;5.63;;;2.10;;
33760;SDS011;20084;47.912;19.044;2023-10-13T12:48:27;4.50;;;2.00;;
33760;SDS011;20084;47.912;19.044;2023-10-13T12:51:11;10.15;;;2.25;;
33760;SDS011;20084;47.912;19.044;2023-10-13T12:53:50;3.47;;;2.15;;
33760;SDS011;20084;47.912;19.044;2023-10-13T12:56:17;6.90;;;2.22;;
33760;SDS011;20084;47.912;19.044;2023-10-13T12:58:51;7.80;;;3.20;;
33760;SDS011;20084;47.912;19.044;2023-10-13T13:01:20;5.47;;;3.08;;
33760;SDS011;20084;47.912;19.044;2023-10-13T13:03:51;6.18;;;3.10;;
33760;SDS011;20084;47.912;19.044;2023-10-13T13:06:23;6.05;;;3.20;;
33760;SDS011;20084;47.912;19.044;2023-10-13T13:08:54;6.82;;;2.97;;
33760;SDS011;20084;47.912;19.044;2023-10-13T13:11:21;5.38;;;2.70;;
33760;SDS011;20084;47.912;19.044;2023-10-13T13:13:47;7.82;;;3.20;;
33760;SDS011;20084;47.912;19.044;2023-10-13T13:16:13;6.22;;;3.05;;
33760;SDS011;20084;47.912;19.044;2023-10-13T13:18:39;4.88;;;2.67;;
33760;SDS011;20084;47.912;19.044;2023-10-13T13:21:05;5.00;;;2.72;;
33760;SDS011;20084;47.912;19.044;2023-10-13T13:23:37;5.47;;;2.67;;
33760;SDS011;20084;47.912;19.044;2023-10-13T13:26:05;11.45;;;3.00;;
33760;SDS011;20084;47.912;19.044;2023-10-13T13:28:49;6.45;;;2.58;;
33760;SDS011;20084;47.912;19.044;2023-10-13T13:31:16;4.00;;;1.90;;
33760;SDS011;20084;47.912;19.044;2023-10-13T13:33:50;6.60;;;2.10;;
33760;SDS011;20084;47.912;19.044;2023-10-13T13:36:16;5.72;;;2.20;;
33760;SDS011;20084;47.912;19.044;2023-10-13T13:38:42;6.95;;;2.33;;
33760;SDS011;20084;47.912;19.044;2023-10-13T13:41:14;4.13;;;2.30;;
33760;SDS011;20084;47.912;19.044;2023-10-13T13:46:20;6.80;;;2.78;;
33760;SDS011;20084;47.912;19.044;2023-10-13T13:48:50;6.50;;;2.45;;
33760;SDS011;20084;47.912;19.044;2023-10-13T13:51:22;8.20;;;2.00;;
33760;SDS011;20084;47.912;19.044;2023-10-13T13:53:53;4.18;;;2.38;;
33760;SDS011;20084;47.912;19.044;2023-10-13T13:56:19;4.85;;;2.95;;
33760;SDS011;20084;47.912;19.044;2023-10-13T13:58:45;6.15;;;2.60;;
33760;SDS011;20084;47.912;19.044;2023-10-13T14:01:11;6.63;;;2.92;;
33760;SDS011;20084;47.912;19.044;2023-10-13T14:03:39;6.57;;;3.03;;
33760;SDS011;20084;47.912;19.044;2023-10-13T14:06:10;8.52;;;3.20;;
33760;SDS011;20084;47.912;19.044;2023-10-13T14:08:48;7.72;;;3.95;;
33760;SDS011;20084;47.912;19.044;2023-10-13T14:11:19;4.60;;;3.33;;
33760;SDS011;20084;47.912;19.044;2023-10-13T14:14:14;8.82;;;3.10;;
33760;SDS011;20084;47.912;19.044;2023-10-13T14:16:50;7.97;;;3.00;;
33760;SDS011;20084;47.912;19.044;2023-10-13T14:19:16;11.63;;;3.25;;
33760;SDS011;20084;47.912;19.044;2023-10-13T14:21:57;8.55;;;3.33;;
33760;SDS011;20084;47.912;19.044;2023-10-13T14:24:24;5.72;;;3.38;;
33760;SDS011;20084;47.912;19.044;2023-10-13T14:26:56;7.68;;;3.83;;
33760;SDS011;20084;47.912;19.044;2023-10-13T14:29:34;8.40;;;4.18;;
33760;SDS011;20084;47.912;19.044;2023-10-13T14:32:05;12.40;;;3.22;;
33760;SDS011;20084;47.912;19.044;2023-10-13T14:34:32;6.07;;;3.17;;
33760;SDS011;20084;47.912;19.044;2023-10-13T14:37:00;6.15;;;3.47;;
33760;SDS011;20084;47.912;19.044;2023-10-13T14:39:26;13.18;;;3.10;;
33760;SDS011;20084;47.912;19.044;2023-10-13T14:41:54;8.93;;;3.25;;
33760;SDS011;20084;47.912;19.044;2023-10-13T14:44:20;8.90;;;3.28;;
33760;SDS011;20084;47.912;19.044;2023-10-13T14:46:51;8.55;;;3.88;;
33760;SDS011;20084;47.912;19.044;2023-10-13T14:49:20;5.88;;;3.78;;
33760;SDS011;20084;47.912;19.044;2023-10-13T14:51:46;10.13;;;3.42;;
33760;SDS011;20084;47.912;19.044;2023-10-13T14:54:11;6.13;;;3.17;;
33760;SDS011;20084;47.912;19.044;2023-10-13T14:56:39;9.25;;;3.15;;
33760;SDS011;20084;47.912;19.044;2023-10-13T14:59:07;6.93;;;2.70;;
33760;SDS011;20084;47.912;19.044;2023-10-13T15:01:39;5.68;;;3.10;;
33760;SDS011;20084;47.912;19.044;2023-10-13T15:04:05;4.53;;;2.97;;
33760;SDS011;20084;47.912;19.044;2023-10-13T15:06:31;6.85;;;3.20;;
33760;SDS011;20084;47.912;19.044;2023-10-13T15:08:57;7.28;;;3.67;;
33760;SDS011;20084;47.912;19.044;2023-10-13T15:11:24;7.35;;;3.10;;
33760;SDS011;20084;47.912;19.044;2023-10-13T15:13:55;5.75;;;3.45;;
33760;SDS011;20084;47.912;19.044;2023-10-13T15:16:24;8.07;;;4.60;;
33760;SDS011;20084;47.912;19.044;2023-10-13T15:18:52;4.63;;;3.70;;
33760;SDS011;20084;47.912;19.044;2023-10-13T15:21:18;6.35;;;3.65;;
33760;SDS011;20084;47.912;19.044;2023-10-13T15:23:44;7.13;;;3.70;;
33760;SDS011;20084;47.912;19.044;2023-10-13T15:26:10;6.07;;;3.33;;
33760;SDS011;20084;47.912;19.044;2023-10-13T15:28:38;7.07;;;3.83;;
33760;SDS011;20084;47.912;19.044;2023-10-13T15:31:13;8.68;;;4.40;;
33760;SDS011;20084;47.912;19.044;2023-10-13T15:34:02;6.93;;;3.72;;
33760;SDS011;20084;47.912;19.044;2023-10-13T15:36:38;11.48;;;4.38;;
33760;SDS011;20084;47.912;19.044;2023-10-13T15:39:11;11.18;;;4.28;;
33760;SDS011;20084;47.912;19.044;2023-10-13T15:41:40;8.00;;;3.67;;
33760;SDS011;20084;47.912;19.044;2023-10-13T15:44:10;7.43;;;3.63;;
33760;SDS011;20084;47.912;19.044;2023-10-13T15:46:38;6.97;;;3.70;;
33760;SDS011;20084;47.912;19.044;2023-10-13T15:49:05;8.85;;;3.63;;
33760;SDS011;20084;47.912;19.044;2023-10-13T15:51:33;8.77;;;4.50;;
33760;SDS011;20084;47.912;19.044;2023-10-13T15:54:01;7.45;;;3.38;;